sensor_id;sensor_type;location;lat;lon;timestamp;P1;durP1;ratioP1;P2;durP2;ratioP2
12290;SDS011;6208;48.956;9.076;2023-04-25T00:00:11;3.30;;;3.00;;
12290;SDS011;6208;48.956;9.076;2023-04-25T00:02:55;3.25;;;3.05;;
12290;SDS011;6208;48.956;9.076;2023-04-25T00:05:40;3.13;;;3.00;;
12290;SDS011;6208;48.956;9.076;2023-04-25T00:08:24;3.78;;;2.83;;
12290;SDS011;6208;48.956;9.076;2023-04-25T00:11:08;3.35;;;3.03;;
12290;SDS011;6208;48.956;9.076;2023-04-25T00:13:52;3.22;;;3.03;;
12290;SDS011;6208;48.956;9.076;2023-04-25T00:16:37;2.67;;;2.47;;
12290;SDS011;6208;48.956;9.076;2023-04-25T00:19:22;3.33;;;3.10;;
12290;SDS011;6208;48.956;9.076;2023-04-25T00:22:06;3.22;;;3.03;;
12290;SDS011;6208;48.956;9.076;2023-04-25T00:24:51;3.50;;;3.22;;
12290;SDS011;6208;48.956;9.076;2023-04-25T00:27:36;3.50;;;3.20;;
12290;SDS011;6208;48.956;9.076;2023-04-25T00:30:22;3.50;;;3.13;;
12290;SDS011;6208;48.956;9.076;2023-04-25T00:33:06;3.60;;;3.30;;
12290;SDS011;6208;48.956;9.076;2023-04-25T00:35:51;3.60;;;3.38;;
12290;SDS011;6208;48.956;9.076;2023-04-25T00:38:35;3.45;;;3.13;;
12290;SDS011;6208;48.956;9.076;2023-04-25T00:41:19;3.67;;;3.47;;
12290;SDS011;6208;48.956;9.076;2023-04-25T00:44:04;4.32;;;3.92;;
12290;SDS011;6208;48.956;9.076;2023-04-25T00:46:50;3.63;;;3.33;;
12290;SDS011;6208;48.956;9.076;2023-04-25T00:49:35;3.78;;;3.47;;
12290;SDS011;6208;48.956;9.076;2023-04-25T00:52:19;3.20;;;3.00;;
12290;SDS011;6208;48.956;9.076;2023-04-25T00:55:04;3.53;;;3.33;;
12290;SDS011;6208;48.956;9.076;2023-04-25T00:57:49;3.53;;;3.28;;
12290;SDS011;6208;48.956;9.076;2023-04-25T01:00:33;3.78;;;3.55;;
12290;SDS011;6208;48.956;9.076;2023-04-25T01:03:18;3.80;;;3.38;;
12290;SDS011;6208;48.956;9.076;2023-04-25T01:06:03;3.60;;;3.30;;
12290;SDS011;6208;48.956;9.076;2023-04-25T01:08:48;3.63;;;3.33;;
12290;SDS011;6208;48.956;9.076;2023-04-25T01:11:32;3.78;;;3.47;;
12290;SDS011;6208;48.956;9.076;2023-04-25T01:14:16;4.13;;;3.92;;
12290;SDS011;6208;48.956;9.076;2023-04-25T01:17:00;4.38;;;3.97;;
12290;SDS011;6208;48.956;9.076;2023-04-25T01:19:45;4.20;;;3.90;;
12290;SDS011;6208;48.956;9.076;2023-04-25T01:22:32;4.63;;;4.20;;
12290;SDS011;6208;48.956;9.076;2023-04-25T01:25:16;4.15;;;3.80;;
12290;SDS011;6208;48.956;9.076;2023-04-25T01:28:01;4.43;;;4.03;;
12290;SDS011;6208;48.956;9.076;2023-04-25T01:30:45;3.65;;;3.42;;
12290;SDS011;6208;48.956;9.076;2023-04-25T01:33:30;4.28;;;3.65;;
12290;SDS011;6208;48.956;9.076;2023-04-25T01:36:15;4.13;;;3.72;;
12290;SDS011;6208;48.956;9.076;2023-04-25T01:38:59;4.53;;;3.78;;
12290;SDS011;6208;48.956;9.076;2023-04-25T01:41:45;4.18;;;3.88;;
12290;SDS011;6208;48.956;9.076;2023-04-25T01:44:31;4.00;;;3.70;;
12290;SDS011;6208;48.956;9.076;2023-04-25T01:47:14;4.38;;;3.60;;
12290;SDS011;6208;48.956;9.076;2023-04-25T01:49:59;5.93;;;3.60;;
12290;SDS011;6208;48.956;9.076;2023-04-25T01:52:43;4.10;;;3.80;;
12290;SDS011;6208;48.956;9.076;2023-04-25T01:55:28;4.57;;;4.18;;
12290;SDS011;6208;48.956;9.076;2023-04-25T01:58:12;4.10;;;3.70;;
12290;SDS011;6208;48.956;9.076;2023-04-25T02:00:57;4.18;;;3.85;;
12290;SDS011;6208;48.956;9.076;2023-04-25T02:03:41;3.75;;;3.47;;
12290;SDS011;6208;48.956;9.076;2023-04-25T02:06:25;4.00;;;3.65;;
12290;SDS011;6208;48.956;9.076;2023-04-25T02:09:09;4.00;;;3.60;;
12290;SDS011;6208;48.956;9.076;2023-04-25T02:11:54;4.00;;;3.70;;
12290;SDS011;6208;48.956;9.076;2023-04-25T02:14:38;4.03;;;3.72;;
12290;SDS011;6208;48.956;9.076;2023-04-25T02:17:22;3.03;;;2.85;;
12290;SDS011;6208;48.956;9.076;2023-04-25T02:20:06;3.00;;;2.70;;
12290;SDS011;6208;48.956;9.076;2023-04-25T02:22:51;3.25;;;2.92;;
12290;SDS011;6208;48.956;9.076;2023-04-25T02:25:35;2.83;;;2.63;;
12290;SDS011;6208;48.956;9.076;2023-04-25T02:28:19;2.70;;;2.50;;
12290;SDS011;6208;48.956;9.076;2023-04-25T02:31:04;5.35;;;2.58;;
12290;SDS011;6208;48.956;9.076;2023-04-25T02:33:49;4.28;;;2.90;;
12290;SDS011;6208;48.956;9.076;2023-04-25T02:36:33;3.03;;;2.78;;
12290;SDS011;6208;48.956;9.076;2023-04-25T02:39:18;2.75;;;2.55;;
12290;SDS011;6208;48.956;9.076;2023-04-25T02:42:02;3.22;;;2.92;;
12290;SDS011;6208;48.956;9.076;2023-04-25T02:44:47;3.40;;;3.13;;
12290;SDS011;6208;48.956;9.076;2023-04-25T02:47:30;4.00;;;2.90;;
12290;SDS011;6208;48.956;9.076;2023-04-25T02:50:14;3.15;;;2.78;;
12290;SDS011;6208;48.956;9.076;2023-04-25T02:52:59;3.42;;;2.78;;
12290;SDS011;6208;48.956;9.076;2023-04-25T02:55:44;3.22;;;3.03;;
12290;SDS011;6208;48.956;9.076;2023-04-25T02:58:28;3.40;;;3.20;;
12290;SDS011;6208;48.956;9.076;2023-04-25T03:01:12;2.65;;;2.45;;
12290;SDS011;6208;48.956;9.076;2023-04-25T03:03:56;2.75;;;2.55;;
12290;SDS011;6208;48.956;9.076;2023-04-25T03:06:40;3.00;;;2.75;;
12290;SDS011;6208;48.956;9.076;2023-04-25T03:09:24;3.20;;;3.00;;
12290;SDS011;6208;48.956;9.076;2023-04-25T03:12:08;3.00;;;2.83;;
12290;SDS011;6208;48.956;9.076;2023-04-25T03:14:52;3.53;;;2.78;;
12290;SDS011;6208;48.956;9.076;2023-04-25T03:17:36;3.10;;;2.88;;
12290;SDS011;6208;48.956;9.076;2023-04-25T03:20:21;3.53;;;3.22;;
12290;SDS011;6208;48.956;9.076;2023-04-25T03:23:05;3.95;;;3.15;;
12290;SDS011;6208;48.956;9.076;2023-04-25T03:25:49;3.20;;;3.00;;
12290;SDS011;6208;48.956;9.076;2023-04-25T03:28:33;3.60;;;3.30;;
12290;SDS011;6208;48.956;9.076;2023-04-25T03:31:17;3.90;;;3.60;;
12290;SDS011;6208;48.956;9.076;2023-04-25T03:34:03;3.63;;;3.30;;
12290;SDS011;6208;48.956;9.076;2023-04-25T03:36:48;3.70;;;3.50;;
12290;SDS011;6208;48.956;9.076;2023-04-25T03:39:32;3.22;;;2.92;;
12290;SDS011;6208;48.956;9.076;2023-04-25T03:42:16;3.38;;;3.17;;
12290;SDS011;6208;48.956;9.076;2023-04-25T03:45:01;4.03;;;3.63;;
12290;SDS011;6208;48.956;9.076;2023-04-25T03:47:45;4.80;;;4.40;;
12290;SDS011;6208;48.956;9.076;2023-04-25T03:50:29;4.43;;;4.10;;
12290;SDS011;6208;48.956;9.076;2023-04-25T03:53:13;4.40;;;4.10;;
12290;SDS011;6208;48.956;9.076;2023-04-25T03:55:57;4.18;;;3.88;;
12290;SDS011;6208;48.956;9.076;2023-04-25T03:58:41;4.35;;;4.05;;
12290;SDS011;6208;48.956;9.076;2023-04-25T04:01:25;4.15;;;3.83;;
12290;SDS011;6208;48.956;9.076;2023-04-25T04:04:09;5.82;;;4.25;;
12290;SDS011;6208;48.956;9.076;2023-04-25T04:06:54;4.55;;;3.90;;
12290;SDS011;6208;48.956;9.076;2023-04-25T04:09:37;4.55;;;3.90;;
12290;SDS011;6208;48.956;9.076;2023-04-25T04:12:22;5.30;;;4.90;;
12290;SDS011;6208;48.956;9.076;2023-04-25T04:15:06;4.28;;;3.90;;
12290;SDS011;6208;48.956;9.076;2023-04-25T04:17:51;4.22;;;3.92;;
12290;SDS011;6208;48.956;9.076;2023-04-25T04:20:35;4.15;;;3.85;;
12290;SDS011;6208;48.956;9.076;2023-04-25T04:23:20;4.15;;;3.72;;
12290;SDS011;6208;48.956;9.076;2023-04-25T04:26:04;4.22;;;3.92;;
12290;SDS011;6208;48.956;9.076;2023-04-25T04:28:49;4.25;;;3.95;;
12290;SDS011;6208;48.956;9.076;2023-04-25T04:31:37;4.55;;;4.10;;
12290;SDS011;6208;48.956;9.076;2023-04-25T04:34:24;4.38;;;4.18;;
12290;SDS011;6208;48.956;9.076;2023-04-25T04:37:09;4.57;;;4.18;;
12290;SDS011;6208;48.956;9.076;2023-04-25T04:39:56;4.18;;;3.88;;
12290;SDS011;6208;48.956;9.076;2023-04-25T04:42:41;5.50;;;5.00;;
12290;SDS011;6208;48.956;9.076;2023-04-25T04:45:26;5.20;;;4.47;;
12290;SDS011;6208;48.956;9.076;2023-04-25T04:48:11;4.60;;;4.25;;
12290;SDS011;6208;48.956;9.076;2023-04-25T04:50:57;4.88;;;4.38;;
12290;SDS011;6208;48.956;9.076;2023-04-25T04:53:41;4.45;;;4.15;;
12290;SDS011;6208;48.956;9.076;2023-04-25T04:56:25;4.57;;;4.18;;
12290;SDS011;6208;48.956;9.076;2023-04-25T04:59:09;4.20;;;3.85;;
12290;SDS011;6208;48.956;9.076;2023-04-25T05:01:53;4.80;;;4.30;;
12290;SDS011;6208;48.956;9.076;2023-04-25T05:04:37;5.07;;;4.55;;
12290;SDS011;6208;48.956;9.076;2023-04-25T05:07:21;4.28;;;3.97;;
12290;SDS011;6208;48.956;9.076;2023-04-25T05:10:05;5.82;;;5.32;;
12290;SDS011;6208;48.956;9.076;2023-04-25T05:12:51;4.93;;;4.43;;
12290;SDS011;6208;48.956;9.076;2023-04-25T05:15:35;4.95;;;4.50;;
12290;SDS011;6208;48.956;9.076;2023-04-25T05:18:19;4.63;;;4.20;;
12290;SDS011;6208;48.956;9.076;2023-04-25T05:21:03;6.10;;;4.28;;
12290;SDS011;6208;48.956;9.076;2023-04-25T05:23:47;5.05;;;4.53;;
12290;SDS011;6208;48.956;9.076;2023-04-25T05:26:31;4.00;;;3.75;;
12290;SDS011;6208;48.956;9.076;2023-04-25T05:29:15;4.20;;;3.80;;
12290;SDS011;6208;48.956;9.076;2023-04-25T05:31:59;4.85;;;4.32;;
12290;SDS011;6208;48.956;9.076;2023-04-25T05:34:44;4.57;;;4.20;;
12290;SDS011;6208;48.956;9.076;2023-04-25T05:37:28;4.22;;;3.92;;
12290;SDS011;6208;48.956;9.076;2023-04-25T05:40:14;4.78;;;4.38;;
12290;SDS011;6208;48.956;9.076;2023-04-25T05:42:58;4.80;;;4.40;;
12290;SDS011;6208;48.956;9.076;2023-04-25T05:45:42;5.20;;;4.70;;
12290;SDS011;6208;48.956;9.076;2023-04-25T05:48:26;4.82;;;4.28;;
12290;SDS011;6208;48.956;9.076;2023-04-25T05:51:10;5.15;;;4.75;;
12290;SDS011;6208;48.956;9.076;2023-04-25T05:53:54;5.80;;;3.97;;
12290;SDS011;6208;48.956;9.076;2023-04-25T05:56:38;4.32;;;4.00;;
12290;SDS011;6208;48.956;9.076;2023-04-25T05:59:23;4.20;;;3.90;;
12290;SDS011;6208;48.956;9.076;2023-04-25T06:02:07;3.92;;;3.63;;
12290;SDS011;6208;48.956;9.076;2023-04-25T06:04:51;4.63;;;4.22;;
12290;SDS011;6208;48.956;9.076;2023-04-25T06:07:36;3.75;;;3.55;;
12290;SDS011;6208;48.956;9.076;2023-04-25T06:10:20;4.45;;;4.05;;
12290;SDS011;6208;48.956;9.076;2023-04-25T06:13:05;3.95;;;3.65;;
12290;SDS011;6208;48.956;9.076;2023-04-25T06:15:49;3.97;;;3.72;;
12290;SDS011;6208;48.956;9.076;2023-04-25T06:18:33;3.80;;;3.60;;
12290;SDS011;6208;48.956;9.076;2023-04-25T06:21:17;4.05;;;3.75;;
12290;SDS011;6208;48.956;9.076;2023-04-25T06:24:01;4.43;;;4.13;;
12290;SDS011;6208;48.956;9.076;2023-04-25T06:26:46;3.80;;;3.50;;
12290;SDS011;6208;48.956;9.076;2023-04-25T06:29:31;4.72;;;3.78;;
12290;SDS011;6208;48.956;9.076;2023-04-25T06:32:15;3.63;;;3.42;;
12290;SDS011;6208;48.956;9.076;2023-04-25T06:35:01;4.00;;;3.80;;
12290;SDS011;6208;48.956;9.076;2023-04-25T06:37:46;4.28;;;4.00;;
12290;SDS011;6208;48.956;9.076;2023-04-25T06:40:30;3.72;;;3.53;;
12290;SDS011;6208;48.956;9.076;2023-04-25T06:43:14;3.63;;;3.42;;
12290;SDS011;6208;48.956;9.076;2023-04-25T06:45:59;3.50;;;3.30;;
12290;SDS011;6208;48.956;9.076;2023-04-25T06:48:43;3.75;;;3.40;;
12290;SDS011;6208;48.956;9.076;2023-04-25T06:51:28;3.85;;;3.60;;
12290;SDS011;6208;48.956;9.076;2023-04-25T06:54:13;4.55;;;3.97;;
12290;SDS011;6208;48.956;9.076;2023-04-25T06:56:58;4.20;;;3.90;;
12290;SDS011;6208;48.956;9.076;2023-04-25T06:59:44;3.65;;;3.33;;
12290;SDS011;6208;48.956;9.076;2023-04-25T07:02:28;4.30;;;3.90;;
12290;SDS011;6208;48.956;9.076;2023-04-25T07:05:13;3.67;;;3.45;;
12290;SDS011;6208;48.956;9.076;2023-04-25T07:07:57;3.97;;;3.67;;
12290;SDS011;6208;48.956;9.076;2023-04-25T07:10:41;4.13;;;3.75;;
12290;SDS011;6208;48.956;9.076;2023-04-25T07:13:26;4.32;;;4.00;;
12290;SDS011;6208;48.956;9.076;2023-04-25T07:16:10;4.15;;;3.85;;
12290;SDS011;6208;48.956;9.076;2023-04-25T07:18:54;4.20;;;3.90;;
12290;SDS011;6208;48.956;9.076;2023-04-25T07:21:38;4.40;;;4.10;;
12290;SDS011;6208;48.956;9.076;2023-04-25T07:24:22;3.90;;;3.60;;
12290;SDS011;6208;48.956;9.076;2023-04-25T07:27:06;4.03;;;3.70;;
12290;SDS011;6208;48.956;9.076;2023-04-25T07:29:51;3.70;;;3.50;;
12290;SDS011;6208;48.956;9.076;2023-04-25T07:32:35;4.05;;;3.75;;
12290;SDS011;6208;48.956;9.076;2023-04-25T07:35:19;3.33;;;3.13;;
12290;SDS011;6208;48.956;9.076;2023-04-25T07:38:03;3.65;;;3.45;;
12290;SDS011;6208;48.956;9.076;2023-04-25T07:40:50;4.00;;;3.80;;
12290;SDS011;6208;48.956;9.076;2023-04-25T07:43:37;4.40;;;4.10;;
12290;SDS011;6208;48.956;9.076;2023-04-25T07:46:21;5.63;;;4.32;;
12290;SDS011;6208;48.956;9.076;2023-04-25T07:49:05;5.10;;;4.70;;
12290;SDS011;6208;48.956;9.076;2023-04-25T07:51:49;4.43;;;4.10;;
12290;SDS011;6208;48.956;9.076;2023-04-25T07:54:34;4.60;;;4.20;;
12290;SDS011;6208;48.956;9.076;2023-04-25T07:57:18;4.75;;;4.25;;
12290;SDS011;6208;48.956;9.076;2023-04-25T08:00:03;4.50;;;4.10;;
12290;SDS011;6208;48.956;9.076;2023-04-25T08:02:49;5.05;;;4.50;;
12290;SDS011;6208;48.956;9.076;2023-04-25T08:05:34;4.15;;;3.78;;
12290;SDS011;6208;48.956;9.076;2023-04-25T08:08:18;10.15;;;5.85;;
12290;SDS011;6208;48.956;9.076;2023-04-25T08:11:02;5.68;;;4.65;;
12290;SDS011;6208;48.956;9.076;2023-04-25T08:13:46;4.75;;;4.35;;
12290;SDS011;6208;48.956;9.076;2023-04-25T08:16:30;4.38;;;4.07;;
12290;SDS011;6208;48.956;9.076;2023-04-25T08:19:15;4.75;;;4.40;;
12290;SDS011;6208;48.956;9.076;2023-04-25T08:21:59;4.72;;;4.32;;
12290;SDS011;6208;48.956;9.076;2023-04-25T08:24:43;5.30;;;4.88;;
12290;SDS011;6208;48.956;9.076;2023-04-25T08:27:27;5.63;;;5.22;;
12290;SDS011;6208;48.956;9.076;2023-04-25T08:30:11;5.60;;;5.20;;
12290;SDS011;6208;48.956;9.076;2023-04-25T08:32:55;5.95;;;5.45;;
12290;SDS011;6208;48.956;9.076;2023-04-25T08:35:40;6.03;;;5.53;;
12290;SDS011;6208;48.956;9.076;2023-04-25T08:38:24;7.55;;;6.88;;
12290;SDS011;6208;48.956;9.076;2023-04-25T08:41:08;6.45;;;5.88;;
12290;SDS011;6208;48.956;9.076;2023-04-25T08:43:56;7.38;;;6.43;;
12290;SDS011;6208;48.956;9.076;2023-04-25T08:46:44;7.57;;;6.93;;
12290;SDS011;6208;48.956;9.076;2023-04-25T08:49:34;7.53;;;6.90;;
12290;SDS011;6208;48.956;9.076;2023-04-25T08:52:21;8.00;;;7.40;;
12290;SDS011;6208;48.956;9.076;2023-04-25T08:55:07;8.10;;;7.15;;
12290;SDS011;6208;48.956;9.076;2023-04-25T08:57:54;9.73;;;7.15;;
12290;SDS011;6208;48.956;9.076;2023-04-25T09:00:39;8.35;;;7.65;;
12290;SDS011;6208;48.956;9.076;2023-04-25T09:03:24;9.32;;;8.52;;
12290;SDS011;6208;48.956;9.076;2023-04-25T09:06:10;9.00;;;8.20;;
12290;SDS011;6208;48.956;9.076;2023-04-25T09:08:55;8.95;;;8.25;;
12290;SDS011;6208;48.956;9.076;2023-04-25T09:11:51;8.18;;;7.15;;
12290;SDS011;6208;48.956;9.076;2023-04-25T09:14:38;7.53;;;6.93;;
12290;SDS011;6208;48.956;9.076;2023-04-25T09:17:22;8.07;;;7.47;;
12290;SDS011;6208;48.956;9.076;2023-04-25T09:20:11;7.35;;;6.65;;
12290;SDS011;6208;48.956;9.076;2023-04-25T09:23:00;8.20;;;7.40;;
12290;SDS011;6208;48.956;9.076;2023-04-25T09:25:53;7.65;;;6.95;;
12290;SDS011;6208;48.956;9.076;2023-04-25T09:28:37;9.60;;;8.23;;
12290;SDS011;6208;48.956;9.076;2023-04-25T09:31:22;8.52;;;7.82;;
12290;SDS011;6208;48.956;9.076;2023-04-25T09:34:09;8.63;;;7.82;;
12290;SDS011;6208;48.956;9.076;2023-04-25T09:37:01;9.10;;;8.27;;
12290;SDS011;6208;48.956;9.076;2023-04-25T09:39:46;8.23;;;7.38;;
12290;SDS011;6208;48.956;9.076;2023-04-25T09:42:57;8.88;;;8.00;;
12290;SDS011;6208;48.956;9.076;2023-04-25T09:45:42;7.88;;;7.13;;
12290;SDS011;6208;48.956;9.076;2023-04-25T09:48:30;7.70;;;6.80;;
12290;SDS011;6208;48.956;9.076;2023-04-25T09:51:15;7.40;;;6.80;;
12290;SDS011;6208;48.956;9.076;2023-04-25T09:53:59;7.88;;;7.10;;
12290;SDS011;6208;48.956;9.076;2023-04-25T09:56:43;7.80;;;7.10;;
12290;SDS011;6208;48.956;9.076;2023-04-25T09:59:31;8.13;;;7.40;;
12290;SDS011;6208;48.956;9.076;2023-04-25T10:02:19;8.32;;;7.55;;
12290;SDS011;6208;48.956;9.076;2023-04-25T10:05:08;7.80;;;7.20;;
12290;SDS011;6208;48.956;9.076;2023-04-25T10:07:53;6.78;;;6.28;;
12290;SDS011;6208;48.956;9.076;2023-04-25T10:10:39;5.20;;;4.78;;
12290;SDS011;6208;48.956;9.076;2023-04-25T10:13:24;4.18;;;3.83;;
12290;SDS011;6208;48.956;9.076;2023-04-25T10:16:09;5.25;;;4.18;;
12290;SDS011;6208;48.956;9.076;2023-04-25T10:18:54;4.95;;;4.43;;
12290;SDS011;6208;48.956;9.076;2023-04-25T10:21:40;5.00;;;4.60;;
12290;SDS011;6208;48.956;9.076;2023-04-25T10:24:31;5.22;;;4.65;;
12290;SDS011;6208;48.956;9.076;2023-04-25T10:27:15;5.82;;;5.43;;
12290;SDS011;6208;48.956;9.076;2023-04-25T10:30:03;6.18;;;5.68;;
12290;SDS011;6208;48.956;9.076;2023-04-25T10:32:54;5.22;;;4.93;;
12290;SDS011;6208;48.956;9.076;2023-04-25T10:35:39;5.13;;;4.63;;
12290;SDS011;6208;48.956;9.076;2023-04-25T10:38:24;4.30;;;4.00;;
12290;SDS011;6208;48.956;9.076;2023-04-25T10:41:10;4.45;;;4.18;;
12290;SDS011;6208;48.956;9.076;2023-04-25T10:44:01;4.53;;;4.13;;
12290;SDS011;6208;48.956;9.076;2023-04-25T10:46:48;5.85;;;5.35;;
12290;SDS011;6208;48.956;9.076;2023-04-25T10:49:35;6.40;;;5.90;;
12290;SDS011;6208;48.956;9.076;2023-04-25T10:52:25;6.70;;;6.15;;
12290;SDS011;6208;48.956;9.076;2023-04-25T10:55:12;6.55;;;5.90;;
12290;SDS011;6208;48.956;9.076;2023-04-25T10:57:56;5.85;;;5.45;;
12290;SDS011;6208;48.956;9.076;2023-04-25T11:00:41;6.30;;;5.80;;
12290;SDS011;6208;48.956;9.076;2023-04-25T11:03:25;5.57;;;5.10;;
12290;SDS011;6208;48.956;9.076;2023-04-25T11:06:12;5.00;;;4.60;;
12290;SDS011;6208;48.956;9.076;2023-04-25T11:08:59;4.82;;;4.53;;
12290;SDS011;6208;48.956;9.076;2023-04-25T11:11:53;5.25;;;4.85;;
12290;SDS011;6208;48.956;9.076;2023-04-25T11:14:38;5.72;;;5.20;;
12290;SDS011;6208;48.956;9.076;2023-04-25T11:17:24;5.60;;;5.20;;
12290;SDS011;6208;48.956;9.076;2023-04-25T11:20:09;6.32;;;4.75;;
12290;SDS011;6208;48.956;9.076;2023-04-25T11:22:57;5.75;;;5.25;;
12290;SDS011;6208;48.956;9.076;2023-04-25T11:25:43;5.75;;;5.32;;
12290;SDS011;6208;48.956;9.076;2023-04-25T11:28:28;5.97;;;5.47;;
12290;SDS011;6208;48.956;9.076;2023-04-25T11:31:13;5.47;;;5.07;;
12290;SDS011;6208;48.956;9.076;2023-04-25T11:33:58;6.38;;;5.90;;
12290;SDS011;6208;48.956;9.076;2023-04-25T11:36:42;5.45;;;5.00;;
12290;SDS011;6208;48.956;9.076;2023-04-25T11:39:28;5.43;;;5.00;;
12290;SDS011;6208;48.956;9.076;2023-04-25T11:42:13;6.20;;;5.53;;
12290;SDS011;6208;48.956;9.076;2023-04-25T11:44:58;5.32;;;4.93;;
12290;SDS011;6208;48.956;9.076;2023-04-25T11:47:43;5.75;;;5.10;;
12290;SDS011;6208;48.956;9.076;2023-04-25T11:50:27;6.43;;;5.82;;
12290;SDS011;6208;48.956;9.076;2023-04-25T11:53:12;6.47;;;5.88;;
12290;SDS011;6208;48.956;9.076;2023-04-25T11:55:57;6.53;;;5.88;;
12290;SDS011;6208;48.956;9.076;2023-04-25T11:58:54;6.85;;;6.15;;
12290;SDS011;6208;48.956;9.076;2023-04-25T12:01:46;6.30;;;5.70;;
12290;SDS011;6208;48.956;9.076;2023-04-25T12:04:32;7.75;;;6.80;;
12290;SDS011;6208;48.956;9.076;2023-04-25T12:07:16;7.55;;;6.50;;
12290;SDS011;6208;48.956;9.076;2023-04-25T12:10:06;6.90;;;6.35;;
12290;SDS011;6208;48.956;9.076;2023-04-25T12:12:51;7.65;;;6.95;;
12290;SDS011;6208;48.956;9.076;2023-04-25T12:15:36;8.18;;;7.15;;
12290;SDS011;6208;48.956;9.076;2023-04-25T12:18:24;6.80;;;6.22;;
12290;SDS011;6208;48.956;9.076;2023-04-25T12:21:12;7.65;;;6.47;;
12290;SDS011;6208;48.956;9.076;2023-04-25T12:23:56;7.32;;;6.63;;
12290;SDS011;6208;48.956;9.076;2023-04-25T12:29:49;8.13;;;7.32;;
12290;SDS011;6208;48.956;9.076;2023-04-25T12:32:38;7.35;;;6.65;;
12290;SDS011;6208;48.956;9.076;2023-04-25T12:35:22;11.45;;;7.43;;
12290;SDS011;6208;48.956;9.076;2023-04-25T12:38:06;8.82;;;7.88;;
12290;SDS011;6208;48.956;9.076;2023-04-25T12:40:50;13.23;;;8.82;;
12290;SDS011;6208;48.956;9.076;2023-04-25T12:43:35;8.88;;;7.68;;
12290;SDS011;6208;48.956;9.076;2023-04-25T12:46:19;10.50;;;7.85;;
12290;SDS011;6208;48.956;9.076;2023-04-25T12:49:03;12.45;;;8.68;;
12290;SDS011;6208;48.956;9.076;2023-04-25T12:51:48;9.10;;;8.30;;
12290;SDS011;6208;48.956;9.076;2023-04-25T12:54:32;9.88;;;8.38;;
12290;SDS011;6208;48.956;9.076;2023-04-25T12:57:17;10.57;;;8.55;;
12290;SDS011;6208;48.956;9.076;2023-04-25T13:00:01;9.15;;;8.25;;
12290;SDS011;6208;48.956;9.076;2023-04-25T13:02:45;9.43;;;8.25;;
12290;SDS011;6208;48.956;9.076;2023-04-25T13:05:32;9.90;;;8.65;;
12290;SDS011;6208;48.956;9.076;2023-04-25T13:08:16;9.43;;;8.43;;
12290;SDS011;6208;48.956;9.076;2023-04-25T13:11:01;10.95;;;8.95;;
12290;SDS011;6208;48.956;9.076;2023-04-25T13:13:45;9.43;;;8.27;;
12290;SDS011;6208;48.956;9.076;2023-04-25T13:16:29;8.63;;;7.93;;
12290;SDS011;6208;48.956;9.076;2023-04-25T13:19:13;8.55;;;7.60;;
12290;SDS011;6208;48.956;9.076;2023-04-25T13:21:57;7.97;;;7.28;;
12290;SDS011;6208;48.956;9.076;2023-04-25T13:24:42;10.73;;;8.68;;
12290;SDS011;6208;48.956;9.076;2023-04-25T13:27:26;8.88;;;7.43;;
12290;SDS011;6208;48.956;9.076;2023-04-25T13:30:10;8.98;;;8.05;;
12290;SDS011;6208;48.956;9.076;2023-04-25T13:32:55;10.02;;;8.85;;
12290;SDS011;6208;48.956;9.076;2023-04-25T13:35:40;8.93;;;8.02;;
12290;SDS011;6208;48.956;9.076;2023-04-25T13:38:25;8.57;;;7.38;;
12290;SDS011;6208;48.956;9.076;2023-04-25T13:41:09;8.60;;;7.65;;
12290;SDS011;6208;48.956;9.076;2023-04-25T13:43:58;9.88;;;8.40;;
12290;SDS011;6208;48.956;9.076;2023-04-25T13:46:43;7.60;;;6.90;;
12290;SDS011;6208;48.956;9.076;2023-04-25T13:49:27;7.35;;;6.75;;
12290;SDS011;6208;48.956;9.076;2023-04-25T13:52:11;7.07;;;6.45;;
12290;SDS011;6208;48.956;9.076;2023-04-25T13:54:56;7.13;;;6.53;;
12290;SDS011;6208;48.956;9.076;2023-04-25T13:57:40;8.27;;;7.28;;
12290;SDS011;6208;48.956;9.076;2023-04-25T14:00:24;8.02;;;7.22;;
12290;SDS011;6208;48.956;9.076;2023-04-25T14:03:08;7.78;;;6.80;;
12290;SDS011;6208;48.956;9.076;2023-04-25T14:05:52;7.43;;;6.40;;
12290;SDS011;6208;48.956;9.076;2023-04-25T14:08:37;8.02;;;7.07;;
12290;SDS011;6208;48.956;9.076;2023-04-25T14:11:21;7.13;;;6.47;;
12290;SDS011;6208;48.956;9.076;2023-04-25T14:14:05;7.20;;;6.45;;
12290;SDS011;6208;48.956;9.076;2023-04-25T14:16:49;10.07;;;6.40;;
12290;SDS011;6208;48.956;9.076;2023-04-25T14:19:35;7.22;;;6.55;;
12290;SDS011;6208;48.956;9.076;2023-04-25T14:22:21;9.52;;;6.68;;
12290;SDS011;6208;48.956;9.076;2023-04-25T14:25:08;6.43;;;5.85;;
12290;SDS011;6208;48.956;9.076;2023-04-25T14:27:53;7.00;;;6.40;;
12290;SDS011;6208;48.956;9.076;2023-04-25T14:30:37;9.60;;;7.25;;
12290;SDS011;6208;48.956;9.076;2023-04-25T14:33:21;8.38;;;6.60;;
12290;SDS011;6208;48.956;9.076;2023-04-25T14:36:09;9.23;;;6.57;;
12290;SDS011;6208;48.956;9.076;2023-04-25T14:38:54;7.30;;;6.32;;
12290;SDS011;6208;48.956;9.076;2023-04-25T14:41:38;7.45;;;5.95;;
12290;SDS011;6208;48.956;9.076;2023-04-25T14:44:23;7.75;;;5.45;;
12290;SDS011;6208;48.956;9.076;2023-04-25T14:47:07;9.25;;;6.60;;
12290;SDS011;6208;48.956;9.076;2023-04-25T14:49:51;7.50;;;5.50;;
12290;SDS011;6208;48.956;9.076;2023-04-25T14:52:37;6.47;;;5.43;;
12290;SDS011;6208;48.956;9.076;2023-04-25T14:55:22;7.75;;;5.80;;
12290;SDS011;6208;48.956;9.076;2023-04-25T14:58:06;7.15;;;5.80;;
12290;SDS011;6208;48.956;9.076;2023-04-25T15:00:50;5.65;;;5.22;;
12290;SDS011;6208;48.956;9.076;2023-04-25T15:03:34;7.88;;;6.00;;
12290;SDS011;6208;48.956;9.076;2023-04-25T15:06:18;5.75;;;5.25;;
12290;SDS011;6208;48.956;9.076;2023-04-25T15:09:02;9.30;;;6.60;;
12290;SDS011;6208;48.956;9.076;2023-04-25T15:11:46;7.72;;;6.20;;
12290;SDS011;6208;48.956;9.076;2023-04-25T15:14:30;7.53;;;6.32;;
12290;SDS011;6208;48.956;9.076;2023-04-25T15:17:14;7.38;;;5.97;;
12290;SDS011;6208;48.956;9.076;2023-04-25T15:19:59;6.25;;;5.28;;
12290;SDS011;6208;48.956;9.076;2023-04-25T15:22:43;7.32;;;5.25;;
12290;SDS011;6208;48.956;9.076;2023-04-25T15:25:32;6.05;;;5.45;;
12290;SDS011;6208;48.956;9.076;2023-04-25T15:28:16;5.95;;;5.32;;
12290;SDS011;6208;48.956;9.076;2023-04-25T15:31:00;12.35;;;5.72;;
12290;SDS011;6208;48.956;9.076;2023-04-25T15:33:45;7.05;;;5.63;;
12290;SDS011;6208;48.956;9.076;2023-04-25T15:36:29;5.15;;;4.65;;
12290;SDS011;6208;48.956;9.076;2023-04-25T15:39:14;8.18;;;6.10;;
12290;SDS011;6208;48.956;9.076;2023-04-25T15:42:00;6.10;;;5.22;;
12290;SDS011;6208;48.956;9.076;2023-04-25T15:44:45;7.13;;;5.57;;
12290;SDS011;6208;48.956;9.076;2023-04-25T15:47:29;5.90;;;5.28;;
12290;SDS011;6208;48.956;9.076;2023-04-25T15:50:14;5.43;;;4.88;;
12290;SDS011;6208;48.956;9.076;2023-04-25T15:52:58;5.43;;;4.88;;
12290;SDS011;6208;48.956;9.076;2023-04-25T15:55:43;6.13;;;5.10;;
12290;SDS011;6208;48.956;9.076;2023-04-25T15:58:28;5.43;;;4.90;;
12290;SDS011;6208;48.956;9.076;2023-04-25T16:01:12;5.57;;;5.03;;
12290;SDS011;6208;48.956;9.076;2023-04-25T16:03:57;6.45;;;5.40;;
12290;SDS011;6208;48.956;9.076;2023-04-25T16:06:42;7.35;;;4.63;;
12290;SDS011;6208;48.956;9.076;2023-04-25T16:09:27;5.28;;;4.80;;
12290;SDS011;6208;48.956;9.076;2023-04-25T16:12:12;6.82;;;5.00;;
12290;SDS011;6208;48.956;9.076;2023-04-25T16:14:56;6.80;;;5.13;;
12290;SDS011;6208;48.956;9.076;2023-04-25T16:17:41;5.35;;;4.95;;
12290;SDS011;6208;48.956;9.076;2023-04-25T16:20:25;5.70;;;5.20;;
12290;SDS011;6208;48.956;9.076;2023-04-25T16:23:10;5.65;;;5.10;;
12290;SDS011;6208;48.956;9.076;2023-04-25T16:25:58;5.55;;;5.05;;
12290;SDS011;6208;48.956;9.076;2023-04-25T16:28:42;7.25;;;5.30;;
12290;SDS011;6208;48.956;9.076;2023-04-25T16:31:26;5.45;;;4.75;;
12290;SDS011;6208;48.956;9.076;2023-04-25T16:34:10;5.90;;;4.72;;
12290;SDS011;6208;48.956;9.076;2023-04-25T16:36:55;6.30;;;5.43;;
12290;SDS011;6208;48.956;9.076;2023-04-25T16:39:39;5.82;;;5.20;;
12290;SDS011;6208;48.956;9.076;2023-04-25T16:42:24;5.63;;;5.13;;
12290;SDS011;6208;48.956;9.076;2023-04-25T16:45:09;5.13;;;4.68;;
12290;SDS011;6208;48.956;9.076;2023-04-25T16:47:55;6.82;;;5.60;;
12290;SDS011;6208;48.956;9.076;2023-04-25T16:50:39;7.97;;;5.72;;